Aeroporto :
LOGIN :

Iscrizione | Disclaimer

   EN    FR    IT 

 










Sommario :    VFR   VFR Marginale   IFR   IFR Intensivo   IFR Molto Intensivo
Visibilità : 
Base nubi : 
>= 8 km
>= 3000ft
5 / 8 km
1000 / 3000 ft
1500m / 5 km
500 / 1000 ft
800 / 1500m
200 / 500 ft
< 800m
< 200 ft
Simboli :   Temporali  Nebbia  Neve Forte  Precipitazioni Forti  Vento > 20 kt
SIGMETs :   Varie  Temporali  Ghiacco  Turbolenza  Onda orograficha  Ceneri Vulcaniche






- Altitudine del aeroporto : 122 ft
- Codice IATA : TXL


EDDT - Berlin Tegel Int.

ULTIMO METAR :
  • 221450Z 25022G32KT 9999 BKN047 12/01 Q1011 TEMPO 21025G40KT

METARs OBSOLETI :
  • 221420Z 25018KT CAVOK 12/01 Q1011 TEMPO 21025G40KT
  • 221350Z 24022KT CAVOK 12/01 Q1011 TEMPO 21025G35KT
  • 221320Z 24020KT 9999 BKN048 12/00 Q1011 TEMPO 21025G35KT
  • 221250Z 24017KT 210V270 9999 BKN048 11/M00 Q1011 TEMPO 21025G35KT
  • 221220Z 23020KT 200V260 9999 BKN042 11/M01 Q1011 TEMPO 21025G35KT

TAF TAF EDDT
Valido dal 22 a 12 ore il 23 a 12 ore UTC


221100Z 2212/2312 25020G35KT 9999 SCT040
TEMPO 2214/2218 24025G40KT
BECMG 2221/2223 25015G25KT



MetMap, La meteo Aeronautica in un colpo d'occhio ! - Copyright ORBIFLY Dicembre 2007 - Disclaimer

ORBIFLY MET'MAP TEAM :

Programmazione e sviluppo : Alexandra Zaïnal
Concezione : Baudouin d'Aumeries
Aiuto per la programmazione : Marc-Olivier Méhu
Supporto tecnico e logistico : Manuel Goepfert
Aiuto per la traduzione : Arnaldo La Scala

Contatto : metmap@orbifly.com




FONTI E CREDITI :

   NOAA